Time;durP1;ratioP1;P1;durP2;ratioP2;P2;SDS_P1;SDS_P2;PMS_P1;PMS_P2;Temp;Humidity;BMP_temperature;BMP_pressure;BME280_temperature;BME280_humidity;BME280_pressure;Samples;Min_cycle;Max_cycle;Signal;HPM_P1;HPM_P2
2023/06/25 00:01:10;;;;;;;14.80;9.03;;;;;;;-141.97;55.52;47307.66;5050493;28;20207;-82
2023/06/25 00:03:36;;;;;;;12.97;8.93;;;;;;;-141.97;56.01;47538.28;5051953;28;20189;-82
2023/06/25 00:06:01;;;;;;;13.57;8.37;;;;;;;-141.97;57.08;47471.03;5051822;28;20636;-82
2023/06/25 00:08:27;;;;;;;16.03;8.60;;;;;;;-141.97;57.23;47332.66;5051618;28;20691;-83
2023/06/25 00:10:52;;;;;;;12.03;8.57;;;;;;;-141.97;56.73;47200.03;5051790;28;20621;-82
2023/06/25 00:13:18;;;;;;;10.80;8.30;;;;;;;-141.97;57.03;47570.97;5051821;28;20185;-83
2023/06/25 00:15:43;;;;;;;11.33;8.00;;;;;;;-141.97;57.60;47263.47;5052097;28;20561;-83
2023/06/25 00:18:08;;;;;;;14.13;8.90;;;;;;;-141.97;57.47;47453.72;5052116;28;20570;-82
2023/06/25 00:20:34;;;;;;;14.63;8.07;;;;;;;-141.97;57.78;47642.09;5052845;28;20236;-82
2023/06/25 00:22:59;;;;;;;11.37;8.07;;;;;;;-141.97;57.54;47469.09;5052404;28;20561;-82
2023/06/25 00:25:26;;;;;;;12.13;8.13;;;;;;;-141.97;58.12;47726.66;5052661;28;20193;-82
2023/06/25 00:27:53;;;;;;;10.87;7.97;;;;;;;-141.97;57.91;47659.38;5072273;28;20177;-83
2023/06/25 00:30:18;;;;;;;12.63;8.27;;;;;;;-141.97;57.51;47434.50;5055591;28;20193;-83
2023/06/25 00:32:44;;;;;;;11.17;8.30;;;;;;;-141.97;57.89;47388.38;5037897;28;20293;-82
2023/06/25 00:35:11;;;;;;;12.70;8.30;;;;;;;-141.97;57.69;47301.91;5055283;28;20179;-82
2023/06/25 00:37:41;;;;;;;12.63;8.53;;;;;;;-141.97;57.45;47676.69;5070558;28;20191;-81
2023/06/25 00:40:08;;;;;;;10.17;7.87;;;;;;;-141.97;57.12;47578.66;5074904;28;20224;-82
2023/06/25 00:42:44;;;;;;;11.77;7.97;;;;;;;-141.97;57.62;47595.97;5075121;28;20244;-82
2023/06/25 00:45:11;;;;;;;11.57;8.27;;;;;;;-141.97;57.81;47273.06;5075364;28;20171;-83
2023/06/25 00:47:41;;;;;;;11.27;8.20;;;;;;;-141.97;57.81;47278.84;5075384;28;20569;-83
2023/06/25 00:50:11;;;;;;;12.67;8.03;;;;;;;-141.97;57.52;47415.28;5075329;28;20169;-83
2023/06/25 00:52:37;;;;;;;11.57;8.57;;;;;;;-141.97;57.75;47457.56;5056812;28;20276;-83
2023/06/25 00:55:03;;;;;;;11.27;7.67;;;;;;;-141.97;55.67;47446.03;5073869;28;20173;-83
2023/06/25 00:57:29;;;;;;;10.60;7.80;;;;;;;-141.97;55.17;47634.41;5075353;28;20191;-83
2023/06/25 00:59:56;;;;;;;9.57;7.13;;;;;;;-141.97;54.87;47342.25;5075031;28;20157;-82
2023/06/25 01:02:43;;;;;;;11.03;7.90;;;;;;;-141.97;54.96;47459.50;5074889;28;20160;-83
2023/06/25 01:05:28;;;;;;;9.87;7.93;;;;;;;-141.97;55.17;47471.03;5057501;28;20683;-83
2023/06/25 01:07:57;;;;;;;12.17;7.47;;;;;;;-141.97;54.19;47688.22;5074664;28;20156;-83
2023/06/25 01:10:23;;;;;;;12.10;7.30;;;;;;;-141.97;54.48;47703.59;5073228;28;20227;-83
2023/06/25 01:12:49;;;;;;;9.50;7.87;;;;;;;-141.97;54.35;47334.56;5074444;28;20256;-82
2023/06/25 01:15:15;;;;;;;10.67;7.50;;;;;;;-141.97;54.29;47515.22;5074943;28;20207;-81
2023/06/25 01:17:41;;;;;;;10.80;7.70;;;;;;;-141.97;54.48;47453.72;5074555;28;20171;-81
2023/06/25 01:20:11;;;;;;;11.30;7.60;;;;;;;-141.97;54.31;47532.53;5074927;28;20157;-83
2023/06/25 01:22:38;;;;;;;9.43;7.60;;;;;;;-141.97;54.70;47461.41;5073092;28;20207;-83
2023/06/25 01:25:04;;;;;;;10.07;7.43;;;;;;;-141.97;54.66;47476.78;5074333;28;20168;-83
2023/06/25 01:27:32;;;;;;;10.07;7.50;;;;;;;-141.97;55.00;47465.25;5073702;28;20175;-84
2023/06/25 01:29:58;;;;;;;10.80;7.80;;;;;;;-141.97;54.90;47315.34;5055131;28;20585;-83
2023/06/25 01:32:24;;;;;;;11.77;7.20;;;;;;;-141.97;54.92;47665.16;5074357;28;20189;-83
2023/06/25 01:34:50;;;;;;;10.67;7.37;;;;;;;-141.97;54.50;47586.34;5074806;28;20556;-83
2023/06/25 01:37:17;;;;;;;9.20;7.40;;;;;;;-141.97;54.40;47595.97;5072934;28;20169;-83
2023/06/25 01:39:46;;;;;;;11.23;7.77;;;;;;;-141.97;54.17;47615.19;5074229;28;20587;-82
2023/06/25 01:42:11;;;;;;;9.30;7.33;;;;;;;-141.97;53.93;47494.09;5073866;28;20539;-84
2023/06/25 01:44:37;;;;;;;11.67;7.57;;;;;;;-141.97;54.08;47553.69;5074104;28;20165;-82
2023/06/25 01:47:03;;;;;;;11.20;7.50;;;;;;;-141.97;54.60;47472.94;5074043;28;20160;-81
2023/06/25 01:49:28;;;;;;;11.53;7.70;;;;;;;-141.97;54.83;47253.84;5074327;28;20168;-82
2023/06/25 01:51:53;;;;;;;10.03;7.40;;;;;;;-141.97;54.05;47578.66;5073762;28;20195;-82
2023/06/25 01:54:19;;;;;;;9.53;7.70;;;;;;;-141.97;54.40;47442.19;5073770;28;20605;-82
2023/06/25 01:56:44;;;;;;;10.83;7.40;;;;;;;-141.97;54.84;47246.16;5073555;28;20244;-82
2023/06/25 01:59:10;;;;;;;9.53;7.40;;;;;;;-141.97;54.86;47163.53;5055918;28;20168;-82
2023/06/25 02:01:35;;;;;;;9.47;7.40;;;;;;;-141.97;54.76;47549.84;5073865;28;20251;-83
2023/06/25 02:04:01;;;;;;;10.47;7.40;;;;;;;-141.97;54.91;47478.72;5073698;28;20259;-83
2023/06/25 02:06:27;;;;;;;11.50;7.93;;;;;;;-141.97;54.82;47328.81;5077554;28;20364;-81
2023/06/25 02:08:53;;;;;;;9.83;7.53;;;;;;;-141.97;55.52;47515.22;5075120;28;20256;-82
2023/06/25 02:11:18;;;;;;;10.90;7.80;;;;;;;-141.97;55.77;47398.00;5073455;28;20226;-83
2023/06/25 02:13:44;;;;;;;9.90;7.73;;;;;;;-141.97;55.80;47503.69;5073223;28;20186;-83
2023/06/25 02:16:09;;;;;;;8.60;7.50;;;;;;;-141.97;55.67;47403.75;5073073;28;20191;-82
2023/06/25 02:18:37;;;;;;;11.30;8.13;;;;;;;-141.97;55.60;47484.47;5073150;28;20244;-82
2023/06/25 02:21:03;;;;;;;11.00;7.87;;;;;;;-141.97;56.14;47461.41;5054659;28;20173;-82
2023/06/25 02:23:28;;;;;;;11.63;8.20;;;;;;;-141.97;56.13;47561.38;5055580;28;20176;-82
2023/06/25 02:25:54;;;;;;;10.73;8.13;;;;;;;-141.97;56.50;47476.78;5073386;28;20543;-83
2023/06/25 02:28:19;;;;;;;13.07;8.37;;;;;;;-141.97;56.61;47617.09;5073867;28;20609;-82
2023/06/25 02:30:45;;;;;;;12.13;8.13;;;;;;;-141.97;57.09;47419.13;5073688;28;20168;-82
2023/06/25 02:33:11;;;;;;;14.13;8.43;;;;;;;-141.97;57.66;47317.28;5072892;28;20246;-82
2023/06/25 02:35:36;;;;;;;10.70;8.40;;;;;;;-141.97;57.29;47388.38;5055554;28;20176;-83
2023/06/25 02:38:02;;;;;;;13.47;8.60;;;;;;;-141.97;57.67;47348.03;5055123;28;20250;-82
2023/06/25 02:40:28;;;;;;;13.37;9.07;;;;;;;-141.97;57.95;47492.16;5074148;28;20161;-83
2023/06/25 02:42:54;;;;;;;20.73;11.10;;;;;;;-141.97;57.89;47469.09;5055282;28;20632;-83
2023/06/25 02:45:19;;;;;;;13.07;10.27;;;;;;;-141.97;57.67;47332.66;5072382;28;20169;-83
2023/06/25 02:47:45;;;;;;;17.57;10.40;;;;;;;-141.97;57.73;47636.31;5054841;28;20202;-82
2023/06/25 02:50:10;;;;;;;21.93;10.50;;;;;;;-141.97;58.27;47271.16;5072701;28;20161;-82
2023/06/25 02:52:36;;;;;;;15.87;10.07;;;;;;;-141.97;58.36;47257.69;5073206;28;20216;-82
2023/06/25 02:55:01;;;;;;;13.53;9.57;;;;;;;-141.97;58.25;47428.75;5072971;28;20171;-82
2023/06/25 02:57:30;;;;;;;13.73;9.40;;;;;;;-141.97;59.02;47576.75;5072554;28;20269;-82
2023/06/25 02:59:58;;;;;;;13.87;8.97;;;;;;;-141.97;59.86;47488.31;5072884;28;20226;-82
2023/06/25 03:02:24;;;;;;;15.10;9.80;;;;;;;-141.97;60.55;47690.16;5072482;28;20157;-83
2023/06/25 03:04:50;;;;;;;15.47;10.47;;;;;;;-141.97;60.97;47401.84;5072887;28;20161;-82
2023/06/25 03:07:15;;;;;;;16.10;10.43;;;;;;;-141.97;61.28;47546.00;5072797;28;20639;-82
2023/06/25 03:09:41;;;;;;;14.40;10.60;;;;;;;-141.97;61.54;47386.47;5053586;28;20314;-82
2023/06/25 03:12:07;;;;;;;14.43;10.23;;;;;;;-141.97;61.76;47513.31;5071896;28;20622;-82
2023/06/25 03:14:33;;;;;;;18.93;11.23;;;;;;;-141.97;63.06;47432.59;5072740;28;20222;-83
2023/06/25 03:16:59;;;;;;;18.30;12.13;;;;;;;-141.97;63.28;47465.25;5073143;28;20164;-82
2023/06/25 03:19:24;;;;;;;17.03;10.80;;;;;;;-141.97;63.30;47467.19;5071641;28;20177;-82
2023/06/25 03:21:49;;;;;;;15.47;10.60;;;;;;;-141.97;63.33;47467.19;5072092;28;20324;-82
2023/06/25 03:24:15;;;;;;;17.47;11.10;;;;;;;-141.97;63.73;47490.25;5054807;28;20165;-82
2023/06/25 03:26:41;;;;;;;15.00;10.53;;;;;;;-141.97;64.20;47532.53;5072575;28;20627;-83
2023/06/25 03:29:06;;;;;;;19.47;12.67;;;;;;;-141.97;65.73;47611.34;5072896;28;20165;-82
2023/06/25 03:31:32;;;;;;;18.33;12.80;;;;;;;-141.97;68.89;47557.53;5072658;28;20690;-81
2023/06/25 03:33:57;;;;;;;19.10;13.00;;;;;;;-141.97;70.78;47665.16;5070871;28;20629;-82
2023/06/25 03:36:23;;;;;;;19.17;13.13;;;;;;;-141.97;71.37;47522.91;5071681;28;20252;-82
2023/06/25 03:38:48;;;;;;;18.30;13.20;;;;;;;-141.97;70.90;47699.75;5072738;28;20621;-81
2023/06/25 03:41:14;;;;;;;20.53;13.60;;;;;;;-141.97;70.79;47536.38;5053948;28;20165;-82
2023/06/25 03:43:39;;;;;;;20.37;14.53;;;;;;;-141.97;71.65;47359.56;5072500;28;20169;-82
2023/06/25 03:46:05;;;;;;;21.13;14.20;;;;;;;-141.97;71.95;47396.06;5072430;28;20191;-82
2023/06/25 03:48:30;;;;;;;22.50;14.00;;;;;;;-141.97;71.43;47269.22;5054536;28;20200;-83
2023/06/25 03:50:55;;;;;;;22.57;14.20;;;;;;;-141.97;71.60;47659.38;5072584;28;20241;-83
2023/06/25 03:53:21;;;;;;;19.90;14.03;;;;;;;-141.97;73.29;47334.56;5054170;28;20165;-83
2023/06/25 03:55:46;;;;;;;22.57;15.43;;;;;;;-141.97;72.50;47421.06;5072682;28;20157;-82
2023/06/25 03:58:12;;;;;;;22.03;15.10;;;;;;;-141.97;73.45;47536.38;5072127;28;20172;-83
2023/06/25 04:00:37;;;;;;;24.03;15.20;;;;;;;-141.97;72.65;47521.00;5055342;28;20173;-83
2023/06/25 04:03:03;;;;;;;22.07;14.37;;;;;;;-141.97;71.66;47511.38;5058473;28;20202;-83
2023/06/25 04:05:28;;;;;;;19.50;14.00;;;;;;;-141.97;72.52;47449.88;5076090;28;20176;-82
2023/06/25 04:07:54;;;;;;;21.60;14.97;;;;;;;-141.97;72.17;47707.44;5076133;28;20164;-84
2023/06/25 04:10:19;;;;;;;21.63;14.53;;;;;;;-141.97;71.40;47415.28;5058053;28;20212;-83
2023/06/25 04:12:45;;;;;;;20.53;12.80;;;;;;;-141.97;71.19;47463.34;5056393;28;20189;-83
2023/06/25 04:15:10;;;;;;;18.33;13.30;;;;;;;-141.97;72.26;47299.97;5056830;28;20177;-82
2023/06/25 04:17:36;;;;;;;17.80;12.50;;;;;;;-141.97;72.47;47486.41;5058256;28;20248;-82
2023/06/25 04:20:01;;;;;;;16.73;12.70;;;;;;;-141.97;72.58;47363.41;5056827;28;20179;-84
2023/06/25 04:22:27;;;;;;;20.20;11.93;;;;;;;-141.97;72.57;47599.81;5055596;28;20192;-84
2023/06/25 04:24:52;;;;;;;17.47;11.27;;;;;;;-141.97;72.05;47422.97;5056623;28;20682;-84
2023/06/25 04:27:19;;;;;;;15.33;10.60;;;;;;;-141.97;71.24;47619.03;5056466;28;20288;-82
2023/06/25 04:29:45;;;;;;;17.30;10.87;;;;;;;-141.97;70.97;47422.97;5056091;28;20248;-83
2023/06/25 04:32:10;;;;;;;15.10;10.60;;;;;;;-141.97;71.48;47640.16;5056272;28;20322;-83
2023/06/25 04:34:35;;;;;;;15.77;10.50;;;;;;;-141.97;70.65;47519.06;5057679;28;20618;-83
2023/06/25 04:37:01;;;;;;;14.23;9.43;;;;;;;-141.97;69.81;47740.13;5062600;28;20165;-82
2023/06/25 04:39:26;;;;;;;16.23;9.37;;;;;;;-141.97;69.30;47422.97;5056491;28;20213;-84
2023/06/25 04:41:52;;;;;;;14.80;9.50;;;;;;;-141.97;68.82;47536.38;5038815;28;20168;-83
2023/06/25 04:44:17;;;;;;;14.03;9.10;;;;;;;-141.97;67.00;47695.91;5055992;28;20189;-82
2023/06/25 04:46:42;;;;;;;15.03;9.27;;;;;;;-141.97;65.85;47309.59;5054963;28;20165;-83
2023/06/25 04:49:09;;;;;;;13.90;9.17;;;;;;;-141.97;66.54;47749.72;5054996;28;20166;-84
2023/06/25 04:51:34;;;;;;;15.07;9.20;;;;;;;-141.97;65.83;47496.00;5054015;28;20665;-84
2023/06/25 04:54:00;;;;;;;15.70;9.87;;;;;;;-141.97;65.85;47457.56;5037305;28;20272;-83
2023/06/25 04:56:25;;;;;;;14.27;10.27;;;;;;;-141.97;65.17;47373.00;5055482;28;20158;-83
2023/06/25 04:58:50;;;;;;;14.27;9.80;;;;;;;-141.97;64.33;47467.19;5055093;28;20614;-83
2023/06/25 05:01:16;;;;;;;14.87;9.47;;;;;;;-141.97;63.59;47567.13;5055968;28;20516;-84
2023/06/25 05:03:41;;;;;;;14.77;10.07;;;;;;;-141.97;62.82;47334.56;5056187;28;20173;-83
2023/06/25 05:06:07;;;;;;;16.47;11.07;;;;;;;-141.97;62.69;47463.34;5054951;28;20158;-83
2023/06/25 05:08:32;;;;;;;16.27;10.70;;;;;;;-141.97;61.97;47532.53;5036883;28;20233;-83
2023/06/25 05:10:58;;;;;;;14.63;10.83;;;;;;;-141.97;61.13;47394.16;5054032;28;20204;-82
2023/06/25 05:13:23;;;;;;;13.10;10.30;;;;;;;-141.97;61.20;47557.53;5053800;28;20165;-82
2023/06/25 05:15:48;;;;;;;14.93;10.97;;;;;;;-141.97;59.63;47609.41;5054279;28;20552;-83
2023/06/25 05:18:14;;;;;;;16.43;11.30;;;;;;;-141.97;59.97;47330.72;5054466;28;20179;-83
2023/06/25 05:20:39;;;;;;;17.00;11.70;;;;;;;-141.97;58.87;47492.16;5055111;28;20192;-82
2023/06/25 05:23:07;;;;;;;15.03;11.70;;;;;;;-141.97;59.07;47611.34;5053946;28;20176;-83
2023/06/25 05:25:32;;;;;;;18.33;11.23;;;;;;;-141.97;58.99;47422.97;5048733;28;20268;-83
2023/06/25 05:27:59;;;;;;;19.57;11.70;;;;;;;-141.97;57.76;47532.53;5049911;28;20196;-84
2023/06/25 05:30:25;;;;;;;17.13;11.63;;;;;;;-141.97;57.89;47286.53;5034358;28;20737;-83
2023/06/25 05:32:50;;;;;;;16.70;11.53;;;;;;;-141.97;57.60;47599.81;5034481;28;20221;-83
2023/06/25 05:35:16;;;;;;;17.80;12.20;;;;;;;-141.97;56.70;47334.56;5033729;28;20657;-83
2023/06/25 05:37:41;;;;;;;16.90;11.70;;;;;;;-141.97;55.60;47351.88;5033827;28;20170;-83
2023/06/25 05:40:07;;;;;;;14.53;11.40;;;;;;;-141.97;55.47;47530.59;5033929;28;20162;-83
2023/06/25 05:42:33;;;;;;;17.00;11.30;;;;;;;-141.97;54.60;47246.16;5033881;28;20642;-83
2023/06/25 05:44:58;;;;;;;18.83;11.30;;;;;;;-141.97;54.54;47373.00;5034123;28;20300;-83
2023/06/25 05:47:23;;;;;;;16.63;11.47;;;;;;;-141.97;54.37;47538.28;5033772;28;20167;-83
2023/06/25 05:49:49;;;;;;;16.23;10.97;;;;;;;-141.97;54.06;47680.53;5033822;28;20197;-84
2023/06/25 05:52:14;;;;;;;14.47;11.13;;;;;;;-141.97;55.38;47188.50;5032329;28;20189;-83
2023/06/25 05:54:40;;;;;;;15.03;11.53;;;;;;;-141.97;55.10;47119.31;5033074;28;20281;-83
2023/06/25 05:57:05;;;;;;;13.63;11.23;;;;;;;-141.97;54.25;47407.59;5033453;28;20673;-82
2023/06/25 05:59:30;;;;;;;14.75;10.95;;;;;;;-141.97;54.61;47250.00;5032744;28;20174;-84
2023/06/25 06:01:56;;;;;;;12.82;9.60;;;;;;;-141.97;55.26;47230.78;5033672;28;20225;-83
2023/06/25 06:04:21;;;;;;;13.00;9.47;;;;;;;-141.97;56.34;47365.31;5033443;28;20245;-85
2023/06/25 06:06:47;;;;;;;15.98;9.55;;;;;;;-141.97;55.02;47471.03;5033204;28;20159;-83
2023/06/25 06:09:12;;;;;;;14.27;10.05;;;;;;;-141.97;54.02;47132.78;5041690;28;20303;-83
2023/06/25 06:11:38;;;;;;;12.98;8.65;;;;;;;-141.97;54.05;47326.88;5052952;28;20179;-83
2023/06/25 06:14:05;;;;;;;13.30;8.13;;;;;;;-141.97;53.46;47670.91;5052908;28;20167;-83
2023/06/25 06:16:31;;;;;;;9.10;7.60;;;;;;;-141.97;52.63;47549.84;5053244;28;20181;-83
2023/06/25 06:18:56;;;;;;;10.82;7.05;;;;;;;-141.97;52.31;47198.09;5052998;28;20161;-83
2023/06/25 06:21:22;;;;;;;9.13;7.15;;;;;;;-141.97;52.48;47490.25;5053025;28;20168;-83
2023/06/25 06:23:47;;;;;;;10.98;7.55;;;;;;;-141.97;53.26;47353.78;5052205;28;20654;-84
2023/06/25 06:26:12;;;;;;;11.32;7.07;;;;;;;-141.97;53.36;47692.06;5068285;28;20675;-82
2023/06/25 06:28:38;;;;;;;12.95;7.65;;;;;;;-141.97;53.67;47449.88;5053122;28;20161;-82
2023/06/25 06:31:03;;;;;;;10.55;7.53;;;;;;;-141.97;54.70;47624.78;5053040;28;20178;-83
2023/06/25 06:33:29;;;;;;;11.05;7.18;;;;;;;-141.97;53.85;47665.16;5053717;28;20152;-82
2023/06/25 06:35:54;;;;;;;9.20;6.78;;;;;;;-141.97;53.88;47357.63;5053258;28;20643;-82
2023/06/25 06:38:20;;;;;;;13.05;7.20;;;;;;;-141.97;53.33;47546.00;5053098;28;20172;-83
2023/06/25 06:40:45;;;;;;;9.57;7.22;;;;;;;-141.97;53.19;47373.00;5068652;28;20162;-82
2023/06/25 06:43:11;;;;;;;10.10;7.00;;;;;;;-141.97;52.40;47584.44;5072606;28;20225;-83
2023/06/25 06:45:36;;;;;;;11.05;7.32;;;;;;;-141.97;51.50;47342.25;5071822;28;20189;-82
2023/06/25 06:48:01;;;;;;;12.68;7.20;;;;;;;-141.97;51.03;47253.84;5054256;28;20169;-83
2023/06/25 06:50:27;;;;;;;12.52;6.95;;;;;;;-141.97;51.81;47542.16;5054878;28;20164;-85
2023/06/25 06:52:52;;;;;;;11.10;7.28;;;;;;;-141.97;51.20;47373.00;5072157;28;20184;-84
2023/06/25 06:55:18;;;;;;;10.93;7.18;;;;;;;-141.97;52.08;47238.47;5055011;28;20164;-83
2023/06/25 06:57:43;;;;;;;11.57;7.57;;;;;;;-141.97;51.63;47421.06;5072916;28;20532;-83
2023/06/25 07:00:09;;;;;;;12.80;7.32;;;;;;;-141.97;51.23;47576.75;5054892;28;20164;-83
2023/06/25 07:02:35;;;;;;;11.20;7.70;;;;;;;-141.97;52.10;47288.44;5055600;28;20149;-83
2023/06/25 07:05:02;;;;;;;10.88;7.63;;;;;;;-141.97;50.63;47434.50;5073768;28;20164;-83
2023/06/25 07:07:27;;;;;;;15.18;8.10;;;;;;;-141.97;51.16;47342.25;5073390;28;20559;-82
2023/06/25 07:09:56;;;;;;;9.32;7.10;;;;;;;-141.97;50.29;47403.75;5072042;28;20235;-83
2023/06/25 07:12:22;;;;;;;11.55;7.82;;;;;;;-141.97;50.00;47434.50;5071872;28;20673;-83
2023/06/25 07:14:47;;;;;;;10.10;7.68;;;;;;;-141.97;50.33;47453.72;5054819;28;20249;-83
2023/06/25 07:17:13;;;;;;;10.95;7.75;;;;;;;-141.97;50.75;47599.81;5055380;28;20170;-83
2023/06/25 07:19:38;;;;;;;10.50;7.70;;;;;;;-141.97;50.07;47411.44;5072686;28;20163;-83
2023/06/25 07:22:04;;;;;;;10.00;7.97;;;;;;;-141.97;49.43;47315.34;5072659;28;20166;-82
2023/06/25 07:24:29;;;;;;;15.02;8.50;;;;;;;-141.97;49.24;47432.59;5073720;28;20156;-83
2023/06/25 07:26:55;;;;;;;11.35;7.55;;;;;;;-141.97;49.21;47428.75;5073138;28;20624;-84
2023/06/25 07:29:20;;;;;;;12.60;7.88;;;;;;;-141.97;49.25;47186.59;5072660;28;20171;-83
2023/06/25 07:31:46;;;;;;;13.93;8.80;;;;;;;-141.97;47.66;47263.47;5072203;28;20256;-83
2023/06/25 07:34:11;;;;;;;12.13;9.20;;;;;;;-141.97;46.61;47561.38;5072154;28;20163;-83
2023/06/25 07:36:37;;;;;;;11.60;8.13;;;;;;;-141.97;46.48;47609.41;5074574;28;20159;-82
2023/06/25 07:39:03;;;;;;;12.45;8.23;;;;;;;-141.97;45.90;47275.00;5077199;28;20604;-83
2023/06/25 07:41:29;;;;;;;10.63;8.00;;;;;;;-141.97;45.84;47607.50;5076968;28;20195;-84
2023/06/25 07:43:55;;;;;;;11.52;7.80;;;;;;;-141.97;45.11;47371.09;5058444;28;20166;-84
2023/06/25 07:46:24;;;;;;;10.98;8.25;;;;;;;-141.97;45.12;47380.69;5076525;28;20660;-82
2023/06/25 07:48:50;;;;;;;12.02;8.02;;;;;;;-141.97;43.23;47330.72;5076175;28;20161;-83
2023/06/25 07:51:15;;;;;;;10.32;8.05;;;;;;;-141.97;43.53;47130.84;5076128;28;20192;-83
2023/06/25 07:53:40;;;;;;;9.55;7.50;;;;;;;-141.97;42.94;47615.19;5076565;28;20155;-83
2023/06/25 07:56:06;;;;;;;10.77;8.40;;;;;;;-141.97;43.54;47250.00;5076335;28;20546;-84
2023/06/25 07:58:33;;;;;;;11.85;8.05;;;;;;;-141.97;43.16;47146.22;5076433;28;20217;-83
2023/06/25 08:00:59;;;;;;;9.93;8.00;;;;;;;-141.97;43.17;47307.66;5075763;28;20159;-85
2023/06/25 08:03:24;;;;;;;11.68;8.10;;;;;;;-141.97;42.86;47228.88;5058634;28;20174;-82
2023/06/25 08:05:50;;;;;;;13.93;8.50;;;;;;;-141.97;42.34;47357.63;5076109;28;20151;-83
2023/06/25 08:08:15;;;;;;;15.77;8.40;;;;;;;-141.97;42.39;47346.09;5075401;28;20167;-84
2023/06/25 08:10:41;;;;;;;13.07;8.38;;;;;;;-141.97;42.89;47369.16;5075772;28;20167;-82
2023/06/25 08:13:06;;;;;;;11.48;8.32;;;;;;;-141.97;42.88;47288.44;5075878;28;20578;-83
2023/06/25 08:15:32;;;;;;;11.48;7.97;;;;;;;-141.97;41.73;47188.50;5075273;28;20178;-83
2023/06/25 08:17:57;;;;;;;10.88;7.63;;;;;;;-141.97;41.02;47359.56;5058602;28;20162;-83
2023/06/25 08:20:23;;;;;;;12.32;8.75;;;;;;;-141.97;41.47;47396.06;5076071;28;20297;-83
2023/06/25 08:22:48;;;;;;;13.25;8.30;;;;;;;-141.97;41.51;47273.06;5076226;28;20624;-81
2023/06/25 08:25:23;;;;;;;12.35;8.23;;;;;;;-141.97;40.43;47519.06;5074762;28;20165;-83
2023/06/25 08:27:49;;;;;;;11.15;8.35;;;;;;;-141.97;39.22;47132.78;5056698;28;20694;-83
2023/06/25 08:30:14;;;;;;;10.80;8.40;;;;;;;-141.97;39.28;47132.78;5057318;28;20202;-83
2023/06/25 08:32:40;;;;;;;11.25;8.63;;;;;;;-141.97;39.12;47136.63;5075083;28;20660;-83
2023/06/25 08:35:05;;;;;;;11.95;8.98;;;;;;;-141.97;39.94;47353.78;5057744;28;20252;-82
2023/06/25 08:37:31;;;;;;;10.48;8.68;;;;;;;-141.97;39.35;47219.25;5057529;28;20274;-83
2023/06/25 08:39:56;;;;;;;11.15;8.50;;;;;;;-141.97;38.77;47215.41;5075575;28;20206;-82
2023/06/25 08:42:24;;;;;;;10.20;9.10;;;;;;;-141.97;38.36;47576.75;5057395;28;20262;-82
2023/06/25 08:44:50;;;;;;;11.80;9.57;;;;;;;-141.97;38.12;47434.50;5075417;28;20243;-82
2023/06/25 08:47:18;;;;;;;11.23;8.80;;;;;;;-141.97;38.44;47388.38;5076409;28;20264;-81
2023/06/25 08:49:49;;;;;;;14.63;10.05;;;;;;;-141.97;37.83;47349.94;5075218;28;20243;-82
2023/06/25 08:52:16;;;;;;;11.63;8.48;;;;;;;-141.97;37.10;47319.19;5074980;28;20639;-81
2023/06/25 08:54:43;;;;;;;10.30;8.35;;;;;;;-141.97;36.55;47330.72;5056776;28;20951;-82
2023/06/25 08:57:09;;;;;;;10.15;8.48;;;;;;;-141.97;36.96;47476.78;5074610;28;20164;-82
2023/06/25 08:59:35;;;;;;;11.43;8.50;;;;;;;-141.97;37.32;47190.44;5056721;28;20180;-82
2023/06/25 09:02:00;;;;;;;10.32;8.52;;;;;;;-141.97;37.08;47332.66;5074943;28;20161;-82
2023/06/25 09:04:26;;;;;;;11.32;8.57;;;;;;;-141.97;37.17;47038.59;5075506;28;20550;-81
2023/06/25 09:06:52;;;;;;;10.68;8.13;;;;;;;-141.97;35.43;47576.75;5074386;28;20215;-82
2023/06/25 09:09:17;;;;;;;9.45;8.40;;;;;;;-141.97;35.57;47503.69;5074519;28;20747;-81
2023/06/25 09:11:42;;;;;;;11.65;8.52;;;;;;;-141.97;35.83;47315.34;5074370;28;20577;-82
2023/06/25 09:14:08;;;;;;;11.82;8.80;;;;;;;-141.97;36.51;47321.13;5056771;28;20196;-81
2023/06/25 09:16:45;;;;;;;13.27;9.23;;;;;;;-141.97;36.84;47315.34;5057023;28;20243;-81
2023/06/25 09:19:21;;;;;;;11.63;8.48;;;;;;;-141.97;36.99;47232.72;5057035;28;20603;-83
2023/06/25 09:21:47;;;;;;;9.70;8.70;;;;;;;-141.97;36.76;47136.63;5074630;28;20589;-82
2023/06/25 09:24:20;;;;;;;12.63;8.70;;;;;;;-141.97;36.33;47303.81;5074176;28;20169;-82
2023/06/25 09:26:51;;;;;;;10.90;8.80;;;;;;;-141.97;36.29;47351.88;5074124;28;20621;-82
2023/06/25 09:29:18;;;;;;;11.85;9.13;;;;;;;-141.97;36.57;47292.28;5073874;28;20564;-81
2023/06/25 09:31:45;;;;;;;11.60;8.90;;;;;;;-141.97;36.26;47167.38;5073436;28;20184;-82
2023/06/25 09:34:14;;;;;;;10.25;9.13;;;;;;;-141.97;36.27;47296.13;5074447;28;20165;-82
2023/06/25 09:36:39;;;;;;;10.23;8.70;;;;;;;-141.97;36.19;47248.09;5073808;28;20199;-84
2023/06/25 09:39:07;;;;;;;11.88;8.75;;;;;;;-141.97;35.92;47201.97;5056595;28;20644;-83
2023/06/25 09:41:34;;;;;;;12.57;8.85;;;;;;;-141.97;36.33;47278.84;5074237;28;20195;-82
2023/06/25 09:44:03;;;;;;;9.27;8.32;;;;;;;-141.97;36.72;47296.13;5074614;28;20200;-81
2023/06/25 09:46:34;;;;;;;9.80;8.73;;;;;;;-141.97;36.30;47234.63;5074291;28;20255;-82
2023/06/25 09:49:01;;;;;;;12.25;8.75;;;;;;;-141.97;36.41;47186.59;5055514;28;20180;-83
2023/06/25 09:51:33;;;;;;;11.30;9.35;;;;;;;-141.97;37.36;47142.38;5055657;28;20687;-83
2023/06/25 09:54:03;;;;;;;9.88;8.88;;;;;;;-141.97;37.77;47374.94;5073565;28;20224;-82
2023/06/25 09:56:30;;;;;;;10.55;9.23;;;;;;;-141.97;38.04;47353.78;5055605;28;20157;-83
2023/06/25 09:58:55;;;;;;;11.75;9.10;;;;;;;-141.97;37.34;47303.81;5065357;28;20193;-80
2023/06/25 10:01:21;;;;;;;11.98;9.13;;;;;;;-141.97;36.51;47130.84;5053359;28;20170;-82
2023/06/25 10:03:47;;;;;;;11.20;9.07;;;;;;;-141.97;35.91;47163.53;5052794;28;20645;-82
2023/06/25 10:06:12;;;;;;;11.65;9.07;;;;;;;-141.97;35.62;47505.63;5053420;28;20544;-83
2023/06/25 10:08:38;;;;;;;10.38;9.30;;;;;;;-141.97;35.25;47317.28;5051884;28;20232;-83
2023/06/25 10:11:05;;;;;;;11.15;8.90;;;;;;;-141.97;36.13;47292.28;5052973;28;20260;-82
2023/06/25 10:13:30;;;;;;;11.93;9.10;;;;;;;-141.97;36.42;47430.66;5053330;28;20173;-82
2023/06/25 10:15:57;;;;;;;11.07;9.32;;;;;;;-141.97;36.53;47415.28;5053582;28;20244;-82
2023/06/25 10:18:23;;;;;;;11.15;9.55;;;;;;;-141.97;35.74;47146.22;5053102;28;20677;-83
2023/06/25 10:20:49;;;;;;;13.15;8.90;;;;;;;-141.97;35.73;47088.56;5053346;28;20707;-82
2023/06/25 10:23:21;;;;;;;10.68;9.23;;;;;;;-141.97;35.53;47211.56;5053411;28;20161;-82
2023/06/25 10:25:57;;;;;;;10.07;9.07;;;;;;;-141.97;35.49;47103.94;5051902;28;20173;-83
2023/06/25 10:28:30;;;;;;;10.55;8.98;;;;;;;-141.97;35.14;47298.06;5053729;28;20165;-81
2023/06/25 10:30:56;;;;;;;10.68;9.13;;;;;;;-141.97;36.64;47307.66;5053219;28;20189;-83
2023/06/25 10:33:22;;;;;;;12.88;8.95;;;;;;;-141.97;37.05;47342.25;5053305;28;20491;-83
2023/06/25 10:35:50;;;;;;;11.85;9.07;;;;;;;-141.97;36.52;47146.22;5052977;28;20172;-82
2023/06/25 10:38:16;;;;;;;10.68;8.80;;;;;;;-141.97;37.06;47515.22;5051186;28;20179;-82
2023/06/25 10:40:42;;;;;;;11.57;9.10;;;;;;;-141.97;36.83;47280.75;5053072;28;20577;-82
2023/06/25 10:43:08;;;;;;;10.02;8.90;;;;;;;-141.97;36.16;47284.59;5055463;28;20173;-81
2023/06/25 10:45:33;;;;;;;10.52;9.43;;;;;;;-141.97;35.88;47271.16;5056934;28;20234;-82
2023/06/25 10:48:08;;;;;;;10.77;8.70;;;;;;;-141.97;35.68;47209.66;5072093;28;20192;-81
2023/06/25 10:50:34;;;;;;;10.55;8.82;;;;;;;-141.97;35.52;47299.97;5069819;28;20251;-83
2023/06/25 10:53:01;;;;;;;11.18;9.15;;;;;;;-141.97;35.50;47388.38;5071836;28;20254;-83
2023/06/25 10:55:27;;;;;;;11.00;8.60;;;;;;;-141.97;35.35;47213.50;5072467;28;20165;-82
2023/06/25 10:57:54;;;;;;;10.02;8.55;;;;;;;-141.97;35.97;47111.63;5072483;28;20187;-81
2023/06/25 11:00:24;;;;;;;10.20;9.10;;;;;;;-141.97;35.94;47276.91;5054584;28;20643;-82
2023/06/25 11:02:54;;;;;;;14.48;9.88;;;;;;;-141.97;36.03;47540.22;5072416;28;20168;-83